sensor_id;sensor_type;location;lat;lon;timestamp;pressure;altitude;pressure_sealevel;temperature;humidity
8890;BME280;4481;43.406;24.454;2023-04-23T00:02:03;77761.66;;;-144.09;100.00
8890;BME280;4481;43.406;24.454;2023-04-23T00:04:31;77753.28;;;-144.09;100.00
8890;BME280;4481;43.406;24.454;2023-04-23T00:07:02;77751.19;;;-144.09;100.00
8890;BME280;4481;43.406;24.454;2023-04-23T00:09:29;77755.38;;;-144.09;100.00
8890;BME280;4481;43.406;24.454;2023-04-23T00:11:56;77765.81;;;-144.09;100.00
8890;BME280;4481;43.406;24.454;2023-04-23T00:14:23;77738.66;;;-144.09;100.00
8890;BME280;4481;43.406;24.454;2023-04-23T00:16:50;77759.56;;;-144.09;100.00
8890;BME280;4481;43.406;24.454;2023-04-23T00:19:16;77770.00;;;-144.09;100.00
8890;BME280;4481;43.406;24.454;2023-04-23T00:21:42;77782.53;;;-144.09;100.00
8890;BME280;4481;43.406;24.454;2023-04-23T00:24:08;77788.81;;;-144.09;100.00
8890;BME280;4481;43.406;24.454;2023-04-23T00:26:35;77759.56;;;-144.09;100.00
8890;BME280;4481;43.406;24.454;2023-04-23T00:29:01;77747.00;;;-144.09;100.00
8890;BME280;4481;43.406;24.454;2023-04-23T00:31:27;77747.00;;;-144.09;100.00
8890;BME280;4481;43.406;24.454;2023-04-23T00:33:54;77755.38;;;-144.09;100.00
8890;BME280;4481;43.406;24.454;2023-04-23T00:36:20;77747.00;;;-144.09;100.00
8890;BME280;4481;43.406;24.454;2023-04-23T00:38:46;77770.00;;;-144.09;100.00
8890;BME280;4481;43.406;24.454;2023-04-23T00:41:13;77780.47;;;-144.09;100.00
8890;BME280;4481;43.406;24.454;2023-04-23T00:43:40;77797.19;;;-144.09;100.00
8890;BME280;4481;43.406;24.454;2023-04-23T00:46:07;77780.47;;;-144.09;100.00
8890;BME280;4481;43.406;24.454;2023-04-23T00:48:36;77801.34;;;-144.09;100.00
8890;BME280;4481;43.406;24.454;2023-04-23T00:51:03;77822.25;;;-144.09;100.00
8890;BME280;4481;43.406;24.454;2023-04-23T00:53:29;77811.81;;;-144.09;100.00
8890;BME280;4481;43.406;24.454;2023-04-23T00:55:56;77784.63;;;-144.09;100.00
8890;BME280;4481;43.406;24.454;2023-04-23T00:58:23;77778.38;;;-144.09;100.00
8890;BME280;4481;43.406;24.454;2023-04-23T01:00:50;77778.38;;;-144.09;100.00
8890;BME280;4481;43.406;24.454;2023-04-23T01:03:17;77784.63;;;-144.09;100.00
8890;BME280;4481;43.406;24.454;2023-04-23T01:05:47;77805.53;;;-144.09;100.00
8890;BME280;4481;43.406;24.454;2023-04-23T01:08:14;77816.00;;;-144.09;100.00
8890;BME280;4481;43.406;24.454;2023-04-23T01:10:41;77809.72;;;-144.09;100.00
8890;BME280;4481;43.406;24.454;2023-04-23T01:13:08;77805.53;;;-144.09;100.00
8890;BME280;4481;43.406;24.454;2023-04-23T01:15:35;77845.25;;;-144.09;100.00
8890;BME280;4481;43.406;24.454;2023-04-23T01:18:02;77824.34;;;-144.09;100.00
8890;BME280;4481;43.406;24.454;2023-04-23T01:20:29;77822.25;;;-144.09;100.00
8890;BME280;4481;43.406;24.454;2023-04-23T01:22:55;77797.19;;;-144.09;100.00
8890;BME280;4481;43.406;24.454;2023-04-23T01:25:22;77788.81;;;-144.09;100.00
8890;BME280;4481;43.406;24.454;2023-04-23T01:27:48;77795.09;;;-144.09;100.00
8890;BME280;4481;43.406;24.454;2023-04-23T01:30:15;77786.72;;;-144.09;100.00
8890;BME280;4481;43.406;24.454;2023-04-23T01:32:42;77786.72;;;-144.09;100.00
8890;BME280;4481;43.406;24.454;2023-04-23T01:35:09;77786.72;;;-144.09;100.00
8890;BME280;4481;43.406;24.454;2023-04-23T01:37:38;77786.72;;;-144.09;100.00
8890;BME280;4481;43.406;24.454;2023-04-23T01:40:06;77793.00;;;-144.09;100.00
8890;BME280;4481;43.406;24.454;2023-04-23T01:42:33;77803.44;;;-144.09;100.00
8890;BME280;4481;43.406;24.454;2023-04-23T01:45:00;77805.53;;;-144.09;100.00
8890;BME280;4481;43.406;24.454;2023-04-23T01:47:27;77801.34;;;-144.09;100.00
8890;BME280;4481;43.406;24.454;2023-04-23T01:49:53;77820.16;;;-144.09;100.00
8890;BME280;4481;43.406;24.454;2023-04-23T01:52:19;77822.25;;;-144.09;100.00
8890;BME280;4481;43.406;24.454;2023-04-23T01:54:46;77818.09;;;-144.09;100.00
8890;BME280;4481;43.406;24.454;2023-04-23T01:57:13;77838.97;;;-144.09;100.00
8890;BME280;4481;43.406;24.454;2023-04-23T01:59:39;77805.53;;;-144.09;100.00
8890;BME280;4481;43.406;24.454;2023-04-23T02:02:07;77813.91;;;-144.09;100.00
8890;BME280;4481;43.406;24.454;2023-04-23T02:04:36;77826.44;;;-144.09;100.00
8890;BME280;4481;43.406;24.454;2023-04-23T02:07:03;77822.25;;;-144.09;100.00
8890;BME280;4481;43.406;24.454;2023-04-23T02:09:29;77826.44;;;-144.09;100.00
8890;BME280;4481;43.406;24.454;2023-04-23T02:11:55;77818.09;;;-144.09;100.00
8890;BME280;4481;43.406;24.454;2023-04-23T02:14:23;77841.06;;;-144.09;100.00
8890;BME280;4481;43.406;24.454;2023-04-23T02:16:49;77828.53;;;-144.09;100.00
8890;BME280;4481;43.406;24.454;2023-04-23T02:19:16;77826.44;;;-144.09;100.00
8890;BME280;4481;43.406;24.454;2023-04-23T02:21:42;77816.00;;;-144.09;100.00
8890;BME280;4481;43.406;24.454;2023-04-23T02:24:08;77809.72;;;-144.09;100.00
8890;BME280;4481;43.406;24.454;2023-04-23T02:26:34;77801.34;;;-144.09;100.00
8890;BME280;4481;43.406;24.454;2023-04-23T02:29:00;77818.09;;;-144.09;100.00
8890;BME280;4481;43.406;24.454;2023-04-23T02:31:27;77820.16;;;-144.09;100.00
8890;BME280;4481;43.406;24.454;2023-04-23T02:33:53;77826.44;;;-144.09;100.00
8890;BME280;4481;43.406;24.454;2023-04-23T02:36:20;77845.25;;;-144.09;100.00
8890;BME280;4481;43.406;24.454;2023-04-23T02:38:46;77841.06;;;-144.09;100.00
8890;BME280;4481;43.406;24.454;2023-04-23T02:41:13;77836.91;;;-144.09;100.00
8890;BME280;4481;43.406;24.454;2023-04-23T02:43:39;77847.34;;;-144.09;100.00
8890;BME280;4481;43.406;24.454;2023-04-23T02:46:06;77838.97;;;-144.09;100.00
8890;BME280;4481;43.406;24.454;2023-04-23T02:48:35;77826.44;;;-144.09;100.00
8890;BME280;4481;43.406;24.454;2023-04-23T02:51:02;77841.06;;;-144.09;100.00
8890;BME280;4481;43.406;24.454;2023-04-23T02:53:28;77832.72;;;-144.09;100.00
8890;BME280;4481;43.406;24.454;2023-04-23T02:55:54;77861.97;;;-144.09;100.00
8890;BME280;4481;43.406;24.454;2023-04-23T02:58:20;77866.16;;;-144.09;100.00
8890;BME280;4481;43.406;24.454;2023-04-23T03:00:46;77872.44;;;-144.09;100.00
8890;BME280;4481;43.406;24.454;2023-04-23T03:03:12;77872.44;;;-144.09;100.00
8890;BME280;4481;43.406;24.454;2023-04-23T03:05:39;77868.25;;;-144.09;100.00
8890;BME280;4481;43.406;24.454;2023-04-23T03:08:05;77893.34;;;-144.09;100.00
8890;BME280;4481;43.406;24.454;2023-04-23T03:10:31;77901.69;;;-144.09;100.00
8890;BME280;4481;43.406;24.454;2023-04-23T03:12:58;77912.16;;;-144.09;100.00
8890;BME280;4481;43.406;24.454;2023-04-23T03:15:25;77901.69;;;-144.09;100.00
8890;BME280;4481;43.406;24.454;2023-04-23T03:17:51;77905.88;;;-144.09;100.00
8890;BME280;4481;43.406;24.454;2023-04-23T03:20:18;77914.25;;;-144.09;100.00
8890;BME280;4481;43.406;24.454;2023-04-23T03:22:45;77930.97;;;-144.09;100.00
8890;BME280;4481;43.406;24.454;2023-04-23T03:25:11;77924.69;;;-144.09;100.00
8890;BME280;4481;43.406;24.454;2023-04-23T03:27:37;77941.41;;;-144.09;100.00
8890;BME280;4481;43.406;24.454;2023-04-23T03:30:05;77941.41;;;-144.09;100.00
8890;BME280;4481;43.406;24.454;2023-04-23T03:32:32;77939.31;;;-144.09;100.00
8890;BME280;4481;43.406;24.454;2023-04-23T03:34:58;77943.50;;;-144.09;100.00
8890;BME280;4481;43.406;24.454;2023-04-23T03:37:24;77953.97;;;-144.09;100.00
8890;BME280;4481;43.406;24.454;2023-04-23T03:39:51;77949.78;;;-144.09;100.00
8890;BME280;4481;43.406;24.454;2023-04-23T03:42:17;77949.78;;;-144.09;100.00
8890;BME280;4481;43.406;24.454;2023-04-23T03:44:43;77966.50;;;-144.09;100.00
8890;BME280;4481;43.406;24.454;2023-04-23T03:47:09;77981.13;;;-144.09;100.00
8890;BME280;4481;43.406;24.454;2023-04-23T03:49:36;77987.41;;;-144.09;100.00
8890;BME280;4481;43.406;24.454;2023-04-23T03:52:02;77970.69;;;-144.09;100.00
8890;BME280;4481;43.406;24.454;2023-04-23T03:54:29;77972.78;;;-144.09;100.00
8890;BME280;4481;43.406;24.454;2023-04-23T03:56:55;77968.59;;;-144.09;100.00
8890;BME280;4481;43.406;24.454;2023-04-23T03:59:22;77972.78;;;-144.09;100.00
8890;BME280;4481;43.406;24.454;2023-04-23T04:01:48;77962.31;;;-144.09;100.00
8890;BME280;4481;43.406;24.454;2023-04-23T04:04:14;77966.50;;;-144.09;100.00
8890;BME280;4481;43.406;24.454;2023-04-23T04:06:41;77960.22;;;-144.09;100.00
8890;BME280;4481;43.406;24.454;2023-04-23T04:09:07;77960.22;;;-144.09;100.00
8890;BME280;4481;43.406;24.454;2023-04-23T04:11:33;77951.88;;;-144.09;100.00
8890;BME280;4481;43.406;24.454;2023-04-23T04:14:00;77953.97;;;-144.09;100.00
8890;BME280;4481;43.406;24.454;2023-04-23T04:16:26;77953.97;;;-144.09;100.00
8890;BME280;4481;43.406;24.454;2023-04-23T04:18:52;77956.03;;;-144.09;100.00
8890;BME280;4481;43.406;24.454;2023-04-23T04:21:18;77937.22;;;-144.09;100.00
8890;BME280;4481;43.406;24.454;2023-04-23T04:23:45;77920.50;;;-144.09;100.00
8890;BME280;4481;43.406;24.454;2023-04-23T04:26:11;77918.41;;;-144.09;100.00
8890;BME280;4481;43.406;24.454;2023-04-23T04:28:37;77905.88;;;-144.09;100.00
8890;BME280;4481;43.406;24.454;2023-04-23T04:31:05;77882.88;;;-144.09;100.00
8890;BME280;4481;43.406;24.454;2023-04-23T04:33:33;77872.44;;;-144.09;100.00
8890;BME280;4481;43.406;24.454;2023-04-23T04:36:00;77882.88;;;-144.09;100.00
8890;BME280;4481;43.406;24.454;2023-04-23T04:38:26;77868.25;;;-144.09;100.00
8890;BME280;4481;43.406;24.454;2023-04-23T04:40:54;77859.88;;;-144.09;100.00
8890;BME280;4481;43.406;24.454;2023-04-23T04:43:23;77847.34;;;-144.09;100.00
8890;BME280;4481;43.406;24.454;2023-04-23T04:45:49;77807.63;;;-144.09;100.00
8890;BME280;4481;43.406;24.454;2023-04-23T04:48:16;77782.53;;;-144.09;100.00
8890;BME280;4481;43.406;24.454;2023-04-23T04:50:42;77749.09;;;-144.09;100.00
8890;BME280;4481;43.406;24.454;2023-04-23T04:53:08;77744.91;;;-144.09;100.00
8890;BME280;4481;43.406;24.454;2023-04-23T04:55:34;77728.19;;;-144.09;100.00
8890;BME280;4481;43.406;24.454;2023-04-23T04:58:01;77717.75;;;-144.09;100.00
8890;BME280;4481;43.406;24.454;2023-04-23T05:00:28;77694.75;;;-144.09;100.00
8890;BME280;4481;43.406;24.454;2023-04-23T05:02:55;77669.66;;;-144.09;100.00
8890;BME280;4481;43.406;24.454;2023-04-23T05:05:23;77640.41;;;-144.09;100.00
8890;BME280;4481;43.406;24.454;2023-04-23T05:07:49;77627.88;;;-144.09;100.00
8890;BME280;4481;43.406;24.454;2023-04-23T05:10:16;77602.78;;;-144.09;100.00
8890;BME280;4481;43.406;24.454;2023-04-23T05:12:42;77600.69;;;-144.09;100.00
8890;BME280;4481;43.406;24.454;2023-04-23T05:15:10;77571.44;;;-144.09;100.00
8890;BME280;4481;43.406;24.454;2023-04-23T05:17:37;77538.00;;;-144.09;100.00
8890;BME280;4481;43.406;24.454;2023-04-23T05:20:05;77515.00;;;-144.09;100.00
8890;BME280;4481;43.406;24.454;2023-04-23T05:22:32;77475.28;;;-144.09;100.00
8890;BME280;4481;43.406;24.454;2023-04-23T05:24:58;77460.66;;;-144.09;100.00
8890;BME280;4481;43.406;24.454;2023-04-23T05:27:24;77418.84;;;-144.09;100.00
8890;BME280;4481;43.406;24.454;2023-04-23T05:29:50;77368.69;;;-144.09;100.00
8890;BME280;4481;43.406;24.454;2023-04-23T05:32:16;77335.25;;;-144.09;100.00
8890;BME280;4481;43.406;24.454;2023-04-23T05:34:42;77293.44;;;-144.09;100.00
8890;BME280;4481;43.406;24.454;2023-04-23T05:37:09;77262.09;;;-144.09;100.00
8890;BME280;4481;43.406;24.454;2023-04-23T05:39:36;77199.41;;;-144.09;100.00
8890;BME280;4481;43.406;24.454;2023-04-23T05:42:02;77163.88;;;-144.09;100.00
8890;BME280;4481;43.406;24.454;2023-04-23T05:44:29;77193.13;;;-144.09;100.00
8890;BME280;4481;43.406;24.454;2023-04-23T05:46:55;77140.88;;;-144.09;100.00
8890;BME280;4481;43.406;24.454;2023-04-23T05:49:21;77078.19;;;-144.09;98.15
8890;BME280;4481;43.406;24.454;2023-04-23T05:51:48;77034.28;;;-144.09;97.25
8890;BME280;4481;43.406;24.454;2023-04-23T05:54:15;76990.41;;;-144.09;96.18
8890;BME280;4481;43.406;24.454;2023-04-23T05:56:41;76969.50;;;-144.09;96.35
8890;BME280;4481;43.406;24.454;2023-04-23T05:59:07;76961.16;;;-144.09;95.06
8890;BME280;4481;43.406;24.454;2023-04-23T06:01:34;76900.56;;;-144.09;93.81
8890;BME280;4481;43.406;24.454;2023-04-23T06:04:00;76852.47;;;-144.09;92.85
8890;BME280;4481;43.406;24.454;2023-04-23T06:06:26;76871.28;;;-144.09;93.30
8890;BME280;4481;43.406;24.454;2023-04-23T06:08:53;76842.03;;;-144.09;93.43
8890;BME280;4481;43.406;24.454;2023-04-23T06:11:19;76821.13;;;-144.09;92.96
8890;BME280;4481;43.406;24.454;2023-04-23T06:13:46;76768.91;;;-144.09;91.51
8890;BME280;4481;43.406;24.454;2023-04-23T06:16:13;76754.28;;;-144.09;89.67
8890;BME280;4481;43.406;24.454;2023-04-23T06:18:39;76748.00;;;-144.09;90.71
8890;BME280;4481;43.406;24.454;2023-04-23T06:21:05;76718.75;;;-144.09;90.00
8890;BME280;4481;43.406;24.454;2023-04-23T06:23:31;76718.75;;;-144.09;90.15
8890;BME280;4481;43.406;24.454;2023-04-23T06:25:58;76691.56;;;-144.09;90.37
8890;BME280;4481;43.406;24.454;2023-04-23T06:28:25;76670.69;;;-144.09;89.67
8890;BME280;4481;43.406;24.454;2023-04-23T06:30:52;76641.44;;;-144.09;89.21
8890;BME280;4481;43.406;24.454;2023-04-23T06:33:18;76595.47;;;-144.09;88.70
8890;BME280;4481;43.406;24.454;2023-04-23T06:35:44;76574.56;;;-144.09;87.67
8890;BME280;4481;43.406;24.454;2023-04-23T06:38:11;76566.19;;;-144.09;87.26
8890;BME280;4481;43.406;24.454;2023-04-23T06:40:37;76543.22;;;-144.09;87.52
8890;BME280;4481;43.406;24.454;2023-04-23T06:43:03;76547.41;;;-144.09;87.13
8890;BME280;4481;43.406;24.454;2023-04-23T06:45:29;76511.88;;;-144.09;86.54
8890;BME280;4481;43.406;24.454;2023-04-23T06:47:58;76488.88;;;-144.09;85.82
8890;BME280;4481;43.406;24.454;2023-04-23T06:50:24;76455.47;;;-144.09;85.30
8890;BME280;4481;43.406;24.454;2023-04-23T06:52:51;76463.81;;;-144.09;85.40
8890;BME280;4481;43.406;24.454;2023-04-23T06:55:17;76447.09;;;-144.09;85.85
8890;BME280;4481;43.406;24.454;2023-04-23T06:57:44;76417.84;;;-144.09;86.41
8890;BME280;4481;43.406;24.454;2023-04-23T07:00:11;76388.59;;;-144.09;84.71
8890;BME280;4481;43.406;24.454;2023-04-23T07:02:37;76382.31;;;-144.09;86.10
8890;BME280;4481;43.406;24.454;2023-04-23T07:05:04;76438.75;;;-144.09;85.42
8890;BME280;4481;43.406;24.454;2023-04-23T07:07:30;76484.72;;;-144.09;88.14
8890;BME280;4481;43.406;24.454;2023-04-23T07:09:57;76440.84;;;-144.09;86.58
8890;BME280;4481;43.406;24.454;2023-04-23T07:12:23;76403.22;;;-144.09;85.96
8890;BME280;4481;43.406;24.454;2023-04-23T07:14:49;76382.31;;;-144.09;86.08
8890;BME280;4481;43.406;24.454;2023-04-23T07:17:18;76376.06;;;-144.09;84.65
8890;BME280;4481;43.406;24.454;2023-04-23T07:19:44;76355.16;;;-144.09;84.49
8890;BME280;4481;43.406;24.454;2023-04-23T07:22:10;76399.03;;;-144.09;84.91
8890;BME280;4481;43.406;24.454;2023-04-23T07:24:37;76390.69;;;-144.09;83.10
8890;BME280;4481;43.406;24.454;2023-04-23T07:27:03;76403.22;;;-144.09;83.79
8890;BME280;4481;43.406;24.454;2023-04-23T07:29:30;76355.16;;;-144.09;84.52
8890;BME280;4481;43.406;24.454;2023-04-23T07:31:56;76342.63;;;-144.09;83.36
8890;BME280;4481;43.406;24.454;2023-04-23T07:34:22;76323.81;;;-144.09;83.21
8890;BME280;4481;43.406;24.454;2023-04-23T07:36:48;76357.25;;;-144.09;82.98
8890;BME280;4481;43.406;24.454;2023-04-23T07:39:15;76338.44;;;-144.09;83.66
8890;BME280;4481;43.406;24.454;2023-04-23T07:41:41;76363.53;;;-144.09;84.50
8890;BME280;4481;43.406;24.454;2023-04-23T07:44:07;76353.06;;;-144.09;82.65
8890;BME280;4481;43.406;24.454;2023-04-23T07:46:34;76332.19;;;-144.09;81.77
8890;BME280;4481;43.406;24.454;2023-04-23T07:49:00;76321.72;;;-144.09;81.81
8890;BME280;4481;43.406;24.454;2023-04-23T07:51:26;76279.94;;;-144.09;80.34
8890;BME280;4481;43.406;24.454;2023-04-23T07:53:53;76359.34;;;-144.09;74.94
8890;BME280;4481;43.406;24.454;2023-04-23T07:56:20;76317.56;;;-144.09;70.42
8890;BME280;4481;43.406;24.454;2023-04-23T07:58:46;76286.22;;;-144.09;67.99
8890;BME280;4481;43.406;24.454;2023-04-23T08:01:13;76302.94;;;-144.09;67.86
8890;BME280;4481;43.406;24.454;2023-04-23T08:03:40;76311.28;;;-144.09;68.63
8890;BME280;4481;43.406;24.454;2023-04-23T08:06:06;76269.50;;;-144.09;68.61
8890;BME280;4481;43.406;24.454;2023-04-23T08:08:32;76263.22;;;-144.09;69.14
8890;BME280;4481;43.406;24.454;2023-04-23T08:10:58;76290.41;;;-144.09;69.81
8890;BME280;4481;43.406;24.454;2023-04-23T08:13:25;76271.59;;;-144.09;69.68
8890;BME280;4481;43.406;24.454;2023-04-23T08:15:51;76292.47;;;-144.09;70.12
8890;BME280;4481;43.406;24.454;2023-04-23T08:18:18;76342.63;;;-144.09;71.91
8890;BME280;4481;43.406;24.454;2023-04-23T08:20:44;76332.19;;;-144.09;72.30
8890;BME280;4481;43.406;24.454;2023-04-23T08:23:10;76296.66;;;-144.09;71.43
8890;BME280;4481;43.406;24.454;2023-04-23T08:25:36;76286.22;;;-144.09;71.44
8890;BME280;4481;43.406;24.454;2023-04-23T08:28:02;76292.47;;;-144.09;69.21
8890;BME280;4481;43.406;24.454;2023-04-23T08:30:29;76336.34;;;-144.09;68.75
8890;BME280;4481;43.406;24.454;2023-04-23T08:32:56;76376.06;;;-144.09;68.52
8890;BME280;4481;43.406;24.454;2023-04-23T08:35:22;76411.56;;;-144.09;67.79
8890;BME280;4481;43.406;24.454;2023-04-23T08:37:48;76394.88;;;-144.09;68.99
8890;BME280;4481;43.406;24.454;2023-04-23T08:40:15;76407.41;;;-144.09;69.48
8890;BME280;4481;43.406;24.454;2023-04-23T08:42:42;76350.97;;;-144.09;68.84
8890;BME280;4481;43.406;24.454;2023-04-23T08:45:11;76311.28;;;-144.09;69.81
8890;BME280;4481;43.406;24.454;2023-04-23T08:47:39;76292.47;;;-144.09;67.38
8890;BME280;4481;43.406;24.454;2023-04-23T08:50:09;76399.03;;;-144.09;69.88
8890;BME280;4481;43.406;24.454;2023-04-23T08:52:39;76415.75;;;-144.09;71.86
8890;BME280;4481;43.406;24.454;2023-04-23T08:55:07;76394.88;;;-144.09;70.26
8890;BME280;4481;43.406;24.454;2023-04-23T08:57:36;76355.16;;;-144.09;70.15
8890;BME280;4481;43.406;24.454;2023-04-23T09:00:04;76422.03;;;-144.09;69.59
8890;BME280;4481;43.406;24.454;2023-04-23T09:02:31;76419.94;;;-144.09;71.01
8890;BME280;4481;43.406;24.454;2023-04-23T09:04:58;76371.88;;;-144.09;69.61
8890;BME280;4481;43.406;24.454;2023-04-23T09:07:27;76342.63;;;-144.09;69.02
8890;BME280;4481;43.406;24.454;2023-04-23T09:09:53;76313.38;;;-144.09;69.74
8890;BME280;4481;43.406;24.454;2023-04-23T09:12:19;76330.09;;;-144.09;68.33
8890;BME280;4481;43.406;24.454;2023-04-23T09:14:46;76323.81;;;-144.09;67.73
8890;BME280;4481;43.406;24.454;2023-04-23T09:17:12;76294.56;;;-144.09;66.22
8890;BME280;4481;43.406;24.454;2023-04-23T09:19:38;76269.50;;;-144.09;65.60
8890;BME280;4481;43.406;24.454;2023-04-23T09:22:06;76254.88;;;-144.09;67.73
8890;BME280;4481;43.406;24.454;2023-04-23T09:24:33;76221.44;;;-144.09;65.92
8890;BME280;4481;43.406;24.454;2023-04-23T09:26:59;76225.63;;;-144.09;66.20
8890;BME280;4481;43.406;24.454;2023-04-23T09:29:27;76225.63;;;-144.09;64.92
8890;BME280;4481;43.406;24.454;2023-04-23T09:31:54;76217.25;;;-144.09;64.43
8890;BME280;4481;43.406;24.454;2023-04-23T09:34:22;76227.72;;;-144.09;63.77
8890;BME280;4481;43.406;24.454;2023-04-23T09:36:50;76196.38;;;-144.09;63.65
8890;BME280;4481;43.406;24.454;2023-04-23T09:39:19;76165.03;;;-144.09;63.10
8890;BME280;4481;43.406;24.454;2023-04-23T09:41:46;76219.34;;;-144.09;62.82
8890;BME280;4481;43.406;24.454;2023-04-23T09:44:16;76219.34;;;-144.09;63.71
8890;BME280;4481;43.406;24.454;2023-04-23T09:46:43;76217.25;;;-144.09;62.36
8890;BME280;4481;43.406;24.454;2023-04-23T09:49:11;76198.47;;;-144.09;61.51
8890;BME280;4481;43.406;24.454;2023-04-23T09:51:38;76181.75;;;-144.09;61.81
8890;BME280;4481;43.406;24.454;2023-04-23T09:54:10;76246.50;;;-144.09;62.27
8890;BME280;4481;43.406;24.454;2023-04-23T09:56:37;76223.53;;;-144.09;61.88
8890;BME280;4481;43.406;24.454;2023-04-23T09:59:18;76240.25;;;-144.09;60.76
8890;BME280;4481;43.406;24.454;2023-04-23T10:01:44;76279.94;;;-144.09;60.88
8890;BME280;4481;43.406;24.454;2023-04-23T10:04:11;76242.34;;;-144.09;61.79
8890;BME280;4481;43.406;24.454;2023-04-23T10:06:37;76240.25;;;-144.09;60.21
8890;BME280;4481;43.406;24.454;2023-04-23T10:09:03;76217.25;;;-144.09;60.24
8890;BME280;4481;43.406;24.454;2023-04-23T10:11:30;76198.47;;;-144.09;60.87
8890;BME280;4481;43.406;24.454;2023-04-23T10:13:57;76213.09;;;-144.09;61.67
8890;BME280;4481;43.406;24.454;2023-04-23T10:16:23;76196.38;;;-144.09;60.28
8890;BME280;4481;43.406;24.454;2023-04-23T10:18:50;76183.84;;;-144.09;59.17
8890;BME280;4481;43.406;24.454;2023-04-23T10:21:18;76158.75;;;-144.09;59.28
8890;BME280;4481;43.406;24.454;2023-04-23T10:23:46;76156.69;;;-144.09;58.26
8890;BME280;4481;43.406;24.454;2023-04-23T10:26:15;76177.56;;;-144.09;56.53
8890;BME280;4481;43.406;24.454;2023-04-23T10:28:45;76158.75;;;-144.09;56.41
8890;BME280;4481;43.406;24.454;2023-04-23T10:31:12;76146.22;;;-144.09;56.49
8890;BME280;4481;43.406;24.454;2023-04-23T10:33:40;76110.72;;;-144.09;58.16
8890;BME280;4481;43.406;24.454;2023-04-23T10:36:08;76100.25;;;-144.09;55.15
8890;BME280;4481;43.406;24.454;2023-04-23T10:38:34;76108.63;;;-144.09;50.19
8890;BME280;4481;43.406;24.454;2023-04-23T10:41:01;76123.25;;;-144.09;51.44
8890;BME280;4481;43.406;24.454;2023-04-23T10:43:28;76148.31;;;-144.09;50.01
8890;BME280;4481;43.406;24.454;2023-04-23T10:45:54;76167.13;;;-144.09;49.56
8890;BME280;4481;43.406;24.454;2023-04-23T10:48:21;76152.50;;;-144.09;49.52
8890;BME280;4481;43.406;24.454;2023-04-23T10:50:56;76125.34;;;-144.09;49.17
8890;BME280;4481;43.406;24.454;2023-04-23T10:53:23;76112.78;;;-144.09;50.17
8890;BME280;4481;43.406;24.454;2023-04-23T10:55:49;76102.34;;;-144.09;48.81
8890;BME280;4481;43.406;24.454;2023-04-23T10:58:46;76127.41;;;-144.09;46.17
8890;BME280;4481;43.406;24.454;2023-04-23T11:01:13;76108.63;;;-144.09;45.69
8890;BME280;4481;43.406;24.454;2023-04-23T11:03:40;76094.00;;;-144.09;46.00
8890;BME280;4481;43.406;24.454;2023-04-23T11:06:07;76096.09;;;-144.09;45.44
8890;BME280;4481;43.406;24.454;2023-04-23T11:08:34;76102.34;;;-144.09;44.92
8890;BME280;4481;43.406;24.454;2023-04-23T11:11:02;76079.38;;;-144.09;44.47
8890;BME280;4481;43.406;24.454;2023-04-23T11:13:31;76071.00;;;-144.09;42.01
8890;BME280;4481;43.406;24.454;2023-04-23T11:16:16;76079.38;;;-144.09;42.54
8890;BME280;4481;43.406;24.454;2023-04-23T11:18:57;76068.94;;;-144.09;43.23
8890;BME280;4481;43.406;24.454;2023-04-23T11:22:01;76087.72;;;-144.09;42.72
8890;BME280;4481;43.406;24.454;2023-04-23T11:24:28;76094.00;;;-144.09;42.96
8890;BME280;4481;43.406;24.454;2023-04-23T11:26:55;76075.19;;;-144.09;41.96
8890;BME280;4481;43.406;24.454;2023-04-23T11:29:23;76050.13;;;-144.09;41.67
8890;BME280;4481;43.406;24.454;2023-04-23T11:31:49;76033.41;;;-144.09;41.62
8890;BME280;4481;43.406;24.454;2023-04-23T11:34:17;76031.31;;;-144.09;43.37
8890;BME280;4481;43.406;24.454;2023-04-23T11:36:43;76025.06;;;-144.09;42.45
8890;BME280;4481;43.406;24.454;2023-04-23T11:39:09;76048.03;;;-144.09;41.43
8890;BME280;4481;43.406;24.454;2023-04-23T11:41:37;76039.69;;;-144.09;42.42
8890;BME280;4481;43.406;24.454;2023-04-23T11:44:03;76029.22;;;-144.09;41.94
8890;BME280;4481;43.406;24.454;2023-04-23T11:46:31;76018.78;;;-144.09;41.69
8890;BME280;4481;43.406;24.454;2023-04-23T11:48:58;76039.69;;;-144.09;41.54
8890;BME280;4481;43.406;24.454;2023-04-23T11:51:25;76041.75;;;-144.09;40.97
8890;BME280;4481;43.406;24.454;2023-04-23T11:53:52;76041.75;;;-144.09;40.41
8890;BME280;4481;43.406;24.454;2023-04-23T11:56:18;76068.94;;;-144.09;42.36
8890;BME280;4481;43.406;24.454;2023-04-23T11:58:45;76052.22;;;-144.09;40.85
8890;BME280;4481;43.406;24.454;2023-04-23T12:01:11;76045.94;;;-144.09;39.54
8890;BME280;4481;43.406;24.454;2023-04-23T12:03:38;76037.59;;;-144.09;40.24
8890;BME280;4481;43.406;24.454;2023-04-23T12:06:04;76029.22;;;-144.09;41.72
8890;BME280;4481;43.406;24.454;2023-04-23T12:08:32;76016.69;;;-144.09;42.03
8890;BME280;4481;43.406;24.454;2023-04-23T12:11:01;76012.50;;;-144.09;41.00
8890;BME280;4481;43.406;24.454;2023-04-23T12:13:29;76012.50;;;-144.09;40.32
8890;BME280;4481;43.406;24.454;2023-04-23T12:15:58;75993.72;;;-144.09;41.43
8890;BME280;4481;43.406;24.454;2023-04-23T12:18:28;75993.72;;;-144.09;41.28
8890;BME280;4481;43.406;24.454;2023-04-23T12:20:54;76006.25;;;-144.09;42.09
8890;BME280;4481;43.406;24.454;2023-04-23T12:23:25;75993.72;;;-144.09;39.63
8890;BME280;4481;43.406;24.454;2023-04-23T12:25:53;76004.16;;;-144.09;39.59
8890;BME280;4481;43.406;24.454;2023-04-23T12:28:21;75983.25;;;-144.09;39.66
8890;BME280;4481;43.406;24.454;2023-04-23T12:30:49;75981.19;;;-144.09;38.10
8890;BME280;4481;43.406;24.454;2023-04-23T12:33:15;75981.19;;;-144.09;36.71
8890;BME280;4481;43.406;24.454;2023-04-23T12:35:43;75983.25;;;-144.09;36.74
8890;BME280;4481;43.406;24.454;2023-04-23T12:38:20;75968.63;;;-144.09;37.72
8890;BME280;4481;43.406;24.454;2023-04-23T12:40:48;75974.91;;;-144.09;37.19
8890;BME280;4481;43.406;24.454;2023-04-23T12:43:14;75956.09;;;-144.09;37.84
8890;BME280;4481;43.406;24.454;2023-04-23T12:45:41;75949.84;;;-144.09;37.93